createdAt,value
2023-06-11T00:00:21.773Z,17.60
2023-06-11T00:05:14.275Z,17.60
2023-06-11T00:10:08.412Z,17.40
2023-06-11T00:15:04.403Z,17.30
2023-06-11T00:19:57.677Z,17.30
2023-06-11T00:24:50.095Z,17.20
2023-06-11T00:29:42.360Z,17.10
2023-06-11T00:34:34.525Z,16.90
2023-06-11T00:39:27.165Z,16.90
2023-06-11T00:44:19.394Z,16.90
2023-06-11T00:49:12.679Z,16.70
2023-06-11T00:54:05.150Z,16.70
2023-06-11T00:59:00.901Z,16.50
2023-06-11T01:03:57.734Z,16.40
2023-06-11T01:09:59.544Z,16.30
2023-06-11T01:14:52.051Z,16.40
2023-06-11T01:19:57.254Z,16.40
2023-06-11T01:24:49.998Z,16.40
2023-06-11T01:29:47.180Z,16.20
2023-06-11T01:34:42.631Z,16.10
2023-06-11T01:39:46.383Z,16.00
2023-06-11T01:44:48.782Z,16.10
2023-06-11T01:49:41.119Z,16.00
2023-06-11T01:54:33.715Z,16.00
2023-06-11T01:59:25.848Z,15.90
2023-06-11T02:04:18.375Z,15.70
2023-06-11T02:09:10.491Z,15.60
2023-06-11T02:14:02.598Z,15.50
2023-06-11T02:18:54.672Z,15.40
2023-06-11T02:23:46.952Z,15.40
2023-06-11T02:28:39.356Z,15.30
2023-06-11T02:33:33.190Z,15.20
2023-06-11T02:38:25.548Z,15.10
2023-06-11T02:43:17.815Z,15.00
2023-06-11T02:48:09.928Z,15.10
2023-06-11T02:53:02.034Z,15.10
2023-06-11T02:57:55.608Z,14.90
2023-06-11T03:02:47.810Z,14.80
2023-06-11T03:07:44.327Z,14.90
2023-06-11T03:12:36.685Z,14.80
2023-06-11T03:17:30.440Z,14.60
2023-06-11T03:22:24.211Z,14.70
2023-06-11T03:27:16.836Z,14.60
2023-06-11T03:32:12.862Z,14.50
2023-06-11T03:37:07.995Z,14.50
2023-06-11T03:42:00.749Z,14.50
2023-06-11T03:46:56.136Z,14.60
2023-06-11T03:51:49.039Z,14.70
2023-06-11T03:56:41.232Z,14.90
2023-06-11T04:01:34.698Z,14.90
2023-06-11T04:06:28.694Z,14.90
2023-06-11T04:11:21.138Z,15.20
2023-06-11T04:16:13.407Z,15.40
2023-06-11T04:21:06.613Z,15.60
2023-06-11T04:25:58.814Z,16.20
2023-06-11T04:30:53.947Z,21.80
2023-06-11T04:35:49.333Z,26.70
2023-06-11T04:40:42.075Z,29.90
2023-06-11T04:45:37.436Z,31.80
2023-06-11T04:50:34.022Z,33.40
2023-06-11T04:55:28.450Z,34.50
2023-06-11T05:00:23.323Z,35.40
2023-06-11T05:05:16.014Z,36.60
2023-06-11T05:10:08.762Z,37.50
2023-06-11T05:15:01.773Z,38.60
2023-06-11T05:19:54.102Z,39.20
2023-06-11T05:24:48.984Z,39.60
2023-06-11T05:29:44.119Z,39.70
2023-06-11T05:34:38.616Z,40.10
2023-06-11T05:39:34.613Z,40.40
2023-06-11T05:44:28.178Z,41.30
2023-06-11T05:49:20.476Z,41.10
2023-06-11T05:54:13.817Z,41.80
2023-06-11T05:59:06.627Z,43.10
2023-06-11T06:03:58.912Z,43.40
2023-06-11T06:08:51.326Z,44.10
2023-06-11T06:13:44.258Z,44.40
2023-06-11T06:18:40.111Z,44.60
2023-06-11T06:23:32.874Z,43.60
2023-06-11T06:28:35.341Z,43.00
2023-06-11T06:33:31.566Z,43.90
2023-06-11T06:38:25.544Z,44.80
2023-06-11T06:43:18.271Z,45.20
2023-06-11T06:48:19.285Z,45.50
2023-06-11T06:53:11.540Z,44.90
2023-06-11T06:58:04.140Z,44.50
2023-06-11T07:02:56.519Z,43.20
2023-06-11T07:07:49.405Z,44.30
2023-06-11T07:12:42.036Z,44.30
2023-06-11T07:17:34.309Z,44.70
2023-06-11T07:22:26.637Z,45.60
2023-06-11T07:27:19.232Z,44.70
2023-06-11T07:32:12.477Z,44.40
2023-06-11T07:37:05.955Z,45.20
2023-06-11T07:41:58.390Z,45.20
2023-06-11T07:46:52.124Z,45.00
2023-06-11T07:51:46.389Z,45.10
2023-06-11T07:56:40.280Z,45.80
2023-06-11T08:01:32.405Z,45.00
2023-06-11T08:06:24.934Z,46.00
2023-06-11T08:11:17.933Z,46.00
2023-06-11T08:16:10.772Z,45.90
2023-06-11T08:21:04.042Z,44.50
2023-06-11T08:26:00.123Z,44.60
2023-06-11T08:30:52.542Z,45.50
2023-06-11T08:35:44.731Z,45.20
2023-06-11T08:40:42.176Z,44.40
2023-06-11T08:45:35.835Z,44.10
2023-06-11T08:50:30.600Z,42.60
2023-06-11T08:55:22.880Z,39.50
2023-06-11T09:00:15.578Z,38.60
2023-06-11T09:05:09.698Z,39.00
2023-06-11T09:10:09.862Z,38.30
2023-06-11T09:15:05.820Z,37.80
2023-06-11T09:19:58.296Z,38.50
2023-06-11T09:24:52.120Z,39.00
2023-06-11T09:29:47.482Z,40.70
2023-06-11T09:34:41.607Z,37.90
2023-06-11T09:39:34.814Z,37.10
2023-06-11T09:44:28.541Z,38.50
2023-06-11T09:49:23.593Z,38.50
2023-06-11T09:54:17.254Z,39.30
2023-06-11T09:59:13.350Z,39.00
2023-06-11T10:04:05.981Z,39.20
2023-06-11T10:09:01.813Z,41.10
2023-06-11T10:14:02.310Z,42.50
2023-06-11T10:19:07.346Z,40.90
2023-06-11T10:23:59.478Z,40.50
2023-06-11T10:28:53.181Z,37.30
2023-06-11T10:33:46.700Z,36.80
2023-06-11T10:38:42.272Z,38.30
2023-06-11T10:43:37.867Z,38.80
2023-06-11T10:48:32.016Z,36.80
2023-06-11T10:53:24.348Z,37.70
2023-06-11T10:58:28.551Z,39.90
2023-06-11T11:03:25.890Z,38.80
2023-06-11T11:08:21.678Z,37.40
2023-06-11T11:13:18.022Z,36.80
2023-06-11T11:18:10.156Z,36.70
2023-06-11T11:23:02.317Z,36.50
2023-06-11T11:27:54.931Z,35.20
2023-06-11T11:32:47.450Z,32.50
2023-06-11T11:37:40.181Z,30.90
2023-06-11T11:42:32.267Z,29.90
2023-06-11T11:47:27.772Z,29.80
2023-06-11T11:52:22.355Z,29.00
2023-06-11T11:57:14.779Z,28.70
2023-06-11T12:02:08.041Z,29.00
2023-06-11T12:07:08.023Z,28.80
2023-06-11T12:12:05.588Z,28.70
2023-06-11T12:16:58.516Z,28.50
2023-06-11T12:21:52.429Z,28.60
2023-06-11T12:26:51.473Z,28.50
2023-06-11T12:31:44.312Z,28.60
2023-06-11T12:36:38.021Z,28.50
2023-06-11T12:41:30.188Z,28.30
2023-06-11T12:46:22.495Z,28.30
2023-06-11T12:51:14.718Z,28.40
2023-06-11T12:56:07.532Z,28.50
2023-06-11T13:00:59.650Z,28.80
2023-06-11T13:05:51.772Z,28.90
2023-06-11T13:10:43.867Z,28.80
2023-06-11T13:15:36.008Z,29.10
2023-06-11T13:20:29.924Z,29.20
2023-06-11T13:25:23.244Z,28.40
2023-06-11T13:30:15.758Z,28.10
2023-06-11T13:35:09.727Z,27.80
2023-06-11T13:40:02.254Z,27.90
2023-06-11T13:44:54.419Z,28.00
2023-06-11T13:49:46.581Z,28.00
2023-06-11T13:54:43.612Z,28.00
2023-06-11T13:59:35.794Z,28.00
2023-06-11T14:04:28.899Z,27.90
2023-06-11T14:09:21.117Z,27.40
2023-06-11T14:14:13.760Z,27.00
2023-06-11T14:19:08.017Z,27.20
2023-06-11T14:24:00.285Z,27.30
2023-06-11T14:28:53.571Z,27.40
2023-06-11T14:33:45.924Z,27.50
2023-06-11T14:38:38.043Z,27.30
2023-06-11T14:43:30.155Z,27.20
2023-06-11T14:48:22.176Z,27.10
2023-06-11T14:53:14.717Z,26.90
2023-06-11T14:58:06.885Z,27.00
2023-06-11T15:02:59.137Z,27.10
2023-06-11T15:07:51.390Z,27.00
2023-06-11T15:12:43.525Z,27.10
2023-06-11T15:17:37.440Z,27.10
2023-06-11T15:22:29.845Z,27.00
2023-06-11T15:27:22.112Z,27.00
2023-06-11T15:32:15.367Z,27.00
2023-06-11T15:37:07.568Z,26.90
2023-06-11T15:42:02.168Z,26.90
2023-06-11T15:46:54.213Z,26.80
2023-06-11T15:51:48.568Z,26.80
2023-06-11T15:56:47.641Z,26.70
2023-06-11T16:01:40.140Z,26.80
2023-06-11T16:06:32.359Z,26.90
2023-06-11T16:11:24.693Z,26.80
2023-06-11T16:16:17.357Z,26.80
2023-06-11T16:21:09.801Z,26.60
2023-06-11T16:26:02.785Z,26.50
2023-06-11T16:30:55.232Z,26.40
2023-06-11T16:35:48.650Z,26.40
2023-06-11T16:40:41.250Z,26.40
2023-06-11T16:45:33.726Z,26.50
2023-06-11T16:50:26.106Z,26.40
2023-06-11T16:55:22.556Z,26.30
2023-06-11T17:00:16.095Z,26.20
2023-06-11T17:05:08.673Z,26.20
2023-06-11T17:10:00.989Z,26.10
2023-06-11T17:14:54.680Z,25.90
2023-06-11T17:19:47.390Z,25.80
2023-06-11T17:24:39.468Z,25.80
2023-06-11T17:29:34.242Z,25.70
2023-06-11T17:34:26.919Z,25.60
2023-06-11T17:39:19.169Z,25.50
2023-06-11T17:44:11.247Z,25.40
2023-06-11T17:49:03.569Z,25.30
2023-06-11T17:53:57.103Z,25.30
2023-06-11T17:58:49.205Z,25.20
2023-06-11T18:03:41.607Z,25.10
2023-06-11T18:08:33.950Z,25.00
2023-06-11T18:13:26.264Z,24.90
2023-06-11T18:18:18.672Z,24.80
2023-06-11T18:23:11.136Z,24.80
2023-06-11T18:28:03.648Z,24.70
2023-06-11T18:32:56.262Z,24.60
2023-06-11T18:37:49.640Z,24.40
2023-06-11T18:42:42.517Z,24.20
2023-06-11T18:47:35.024Z,24.10
2023-06-11T18:52:27.299Z,24.00
2023-06-11T18:57:21.140Z,23.70
2023-06-11T19:02:15.650Z,23.60
2023-06-11T19:07:08.001Z,23.40
2023-06-11T19:12:00.202Z,23.30
2023-06-11T19:16:52.810Z,23.10
2023-06-11T19:21:47.072Z,23.00
2023-06-11T19:26:39.667Z,22.70
2023-06-11T19:31:32.191Z,22.60
2023-06-11T19:36:24.709Z,22.50
2023-06-11T19:41:16.921Z,22.40
2023-06-11T19:46:09.211Z,22.40
2023-06-11T19:51:01.596Z,22.20
2023-06-11T19:55:54.049Z,22.00
2023-06-11T20:00:46.353Z,22.00
2023-06-11T20:05:38.485Z,21.80
2023-06-11T20:10:37.033Z,21.60
2023-06-11T20:15:29.145Z,21.40
2023-06-11T20:20:21.657Z,21.20
2023-06-11T20:25:13.777Z,21.10
2023-06-11T20:30:06.732Z,21.00
2023-06-11T20:35:00.011Z,21.00
2023-06-11T20:39:52.359Z,20.90
2023-06-11T20:44:44.712Z,21.00
2023-06-11T20:49:36.863Z,20.90
2023-06-11T20:54:29.316Z,20.80
2023-06-11T20:59:21.389Z,20.70
2023-06-11T21:04:13.718Z,20.60
2023-06-11T21:09:07.267Z,20.30
2023-06-11T21:14:12.545Z,20.20
2023-06-11T21:19:06.214Z,19.90
2023-06-11T21:23:58.365Z,19.60
2023-06-11T21:28:50.592Z,19.40
2023-06-11T21:33:42.654Z,19.20
2023-06-11T21:38:34.849Z,19.10
2023-06-11T21:43:27.062Z,19.10
2023-06-11T21:48:19.189Z,19.10
2023-06-11T21:53:14.785Z,19.40
2023-06-11T21:58:06.948Z,19.50
2023-06-11T22:02:59.242Z,19.40
2023-06-11T22:07:52.727Z,19.40
2023-06-11T22:12:45.296Z,19.20
2023-06-11T22:17:38.156Z,19.20
2023-06-11T22:22:31.009Z,19.10
2023-06-11T22:27:23.248Z,19.10
2023-06-11T22:32:15.602Z,19.00
2023-06-11T22:37:07.746Z,19.00
2023-06-11T22:41:59.830Z,19.00
2023-06-11T22:46:52.634Z,19.00
2023-06-11T22:51:45.973Z,18.90
2023-06-11T22:56:38.329Z,18.90
2023-06-11T23:01:31.737Z,18.90
2023-06-11T23:06:23.861Z,18.80
2023-06-11T23:11:15.926Z,18.70
2023-06-11T23:16:10.180Z,18.50
2023-06-11T23:21:05.398Z,18.20
2023-06-11T23:25:58.497Z,18.00
2023-06-11T23:30:53.332Z,17.70
2023-06-11T23:35:45.566Z,17.50
2023-06-11T23:40:38.883Z,17.40
2023-06-11T23:45:30.963Z,17.30
2023-06-11T23:50:24.065Z,17.10
2023-06-11T23:55:16.248Z,17.00
